Pacific Palisades, California
Current Conditions -  °F | °C
As of 3:51 AM on Friday 24 Oct 2014 (Local Time) from KSMO Reporting Station
Clear Clear  
Wind Chill: 61°   Ceiling: Unl
Heat Index: 61°   Visibility: 10mi
Dew Point: 48°   Wind: 5mph
Humidity: 62%   Direction: 350°N
Pressure: 29.95"   Gusts: NA
Location:  34.05°N, 118.53°W
Report Text: KSMO 241051Z AUTO 35004KT 10SM CLR 16/09 A2995 RMK AO2 SLP140 T01610089
Loading
Personal Weather Stations






























Interactive Weather Map New forecast layout! Learn more

10-Day Weather Forecast

Advertisements
Track Severe Weather on mobile